Terminal Aerodrome Forecast
Issued by NWS Binghamton, NY

Home | Current Version | Previous Version | Text Only | Print | Product List | Glossary On
Versions: 1 2 3 4 5 6 7 8 9 10 11 12 13 14 15 16 17
000
FTUS41 KBGM 300800 AAA
TAFBGM
TAF AMD
KBGM 300857Z 3009/3106 25008KT 5SM -SHSN SCT008 OVC012
     FM301000 30010G20KT 4SM -SHSN SCT008 OVC012
      TEMPO 3011/3014 2SM -SHSN OVC008
     FM301400 32015G28KT 5SM -SHSN OVC015
     FM310000 32012G22KT P6SM -SHSN BKN025=

USA.gov is the U.S. government's official web portal to all federal, state and local government web resources and services.